Ault Field, Washington
Current Conditions -  °F | °C
As of 3:56 AM on Wednesday 26 Nov 2014 (Local Time) from KNUW Reporting Station
Broken Clouds Broken Clouds  
Wind Chill: 53°   Ceiling: 7000
Heat Index: 53°   Visibility: 3mi
Dew Point: 50°   Wind: 9mph
Humidity: 89%   Direction: 110°ESE
Pressure: 30.11"   Gusts: NA
Location:  48.3182°N, 122.634°W
Report Text: KNUW 261156Z 11008KT 3SM SCT006 SCT025 BKN070 12/10 A3011 RMK AO2 SFC VIS 7 SLP200 70023 T01170100 10117 20089 58008 $
Loading
Personal Weather Stations






























Interactive Weather Map New forecast layout! Learn more

10-Day Weather Forecast

Advertisements
Track Severe Weather on mobile